KOWB/OWB METAR and TAF weather

Enter ICAO airport designator
Station Type Date Time Source
KOWB METAR 2020/09/22 03:56 UTC NOAA

KOWB 220356Z AUTO 00000KT 10SM CLR 14/13 A3028 RMK AO2 SLP252 T01440128


Station Type Date Time Source
KOWB Decoded METAR 2020/09/22 03:56 UTC NOAA

Owensboro, Owensboro-Daviess County Airport, KY, United States (KOWB) 37-44-24N 087-10-00W
Sep 21, 2020 - 11:56 PM EDT / 2020.09.22 0356 UTC
Wind: Calm:0
Visibility: 10 mile(s):0
Sky conditions: clear
Temperature: 57.9 F (14.4 C)
Dew Point: 55.0 F (12.8 C)
Relative Humidity: 90%
Pressure (altimeter): 30.28 in. Hg (1025 hPa)
ob: KOWB 220356Z AUTO 00000KT 10SM CLR 14/13 A3028 RMK AO2 SLP252 T01440128
cycle: 4

Station Type Date Time Source
KOWB TAF 2020/09/21 18:22 UTC NOAA

TAF KOWB 211720Z 2118/2218 20007KT P6SM FEW050 FEW250
FM212100 VRB03KT P6SM FEW250
FM221100 VRB04KT P6SM FEW050 SCT250

Example: see airport list